Time;durP1;ratioP1;P1;durP2;ratioP2;P2;SDS_P1;SDS_P2;PMS_P1;PMS_P2;Temp;Humidity;BMP_temperature;BMP_pressure;BME280_temperature;BME280_humidity;BME280_pressure;Samples;Min_cycle;Max_cycle;Signal;HPM_P1;HPM_P2
2020/01/17 00:00:10;;;;;;;26.5;16.7;;;;;;;-0.84;80.23926;95781.04;;;;
2020/01/17 00:01:26;;;;;;;26.5;16.7;;;;;;;-0.84;80.23926;95781.04;;;;
2020/01/17 00:03:05;;;;;;;26.5;16.7;;;;;;;-0.84;80.23926;95781.04;;;;
2020/01/17 00:04:05;;;;;;;25.2;15.2;;;;;;;-1;79.46875;95765.92;;;;
2020/01/17 00:05:07;;;;;;;25.2;15.2;;;;;;;-1;79.46875;95765.92;;;;
2020/01/17 00:06:09;;;;;;;25.2;15.2;;;;;;;-1;79.46875;95765.92;;;;
2020/01/17 00:07:13;;;;;;;29.25;17.9;;;;;;;-0.98;80.2334;95766.12;;;;
2020/01/17 00:08:22;;;;;;;29.25;17.9;;;;;;;-0.98;80.2334;95766.12;;;;
2020/01/17 00:09:22;;;;;;;29.25;17.9;;;;;;;-0.98;80.2334;95766.12;;;;
2020/01/17 00:14:36;;;;;;;29.25;17.9;;;;;;;-0.98;80.2334;95766.12;;;;
2020/01/17 00:15:39;;;;;;;29.25;17.9;;;;;;;-0.98;80.2334;95766.12;;;;
2020/01/17 00:16:39;;;;;;;29.25;17.9;;;;;;;-0.98;80.2334;95766.12;;;;
2020/01/17 00:17:40;;;;;;;26.15;16.4;;;;;;;-1.08;79.84961;95761;;;;
2020/01/17 00:18:42;;;;;;;26.15;16.4;;;;;;;-1.08;79.84961;95761;;;;
2020/01/17 00:19:43;;;;;;;26.15;16.4;;;;;;;-1.08;79.84961;95761;;;;
2020/01/17 00:20:43;;;;;;;27.05;17.6;;;;;;;-1.04;80.59668;95762.75;;;;
2020/01/17 00:21:49;;;;;;;27.05;17.6;;;;;;;-1.04;80.59668;95762.75;;;;
2020/01/17 00:22:49;;;;;;;27.05;17.6;;;;;;;-1.04;80.59668;95762.75;;;;
2020/01/17 00:23:50;;;;;;;27.05;17.6;;;;;;;-1.04;80.59668;95762.75;;;;
2020/01/17 00:24:51;;;;;;;27.05;17.6;;;;;;;-1.04;80.59668;95762.75;;;;
2020/01/17 00:25:51;;;;;;;27.05;17.6;;;;;;;-1.04;80.59668;95762.75;;;;
2020/01/17 00:26:52;;;;;;;27.05;17.6;;;;;;;-1.04;80.59668;95762.75;;;;
2020/01/17 00:27:53;;;;;;;27.05;17.6;;;;;;;-1.04;80.59668;95762.75;;;;
2020/01/17 00:28:56;;;;;;;27.05;17.6;;;;;;;-1.04;80.59668;95762.75;;;;
2020/01/17 00:30:10;;;;;;;27.05;17.6;;;;;;;-1.04;80.59668;95762.75;;;;
2020/01/17 00:36:20;;;;;;;28.2;16.9;;;;;;;-1.14;79.88086;95752.33;;;;
2020/01/17 00:37:36;;;;;;;28.2;16.9;;;;;;;-1.14;79.88086;95752.33;;;;
2020/01/17 00:38:36;;;;;;;28.2;16.9;;;;;;;-1.14;79.88086;95752.33;;;;
2020/01/17 00:39:42;;;;;;;28.2;16.9;;;;;;;-1.14;79.88086;95752.33;;;;
2020/01/17 00:40:48;;;;;;;28.2;16.9;;;;;;;-1.14;79.88086;95752.33;;;;
2020/01/17 00:41:48;;;;;;;25.3;15.45;;;;;;;-1.25;79.52637;95748.58;;;;
2020/01/17 00:42:49;;;;;;;25.3;15.45;;;;;;;-1.25;79.52637;95748.58;;;;
2020/01/17 00:43:49;;;;;;;25.3;15.45;;;;;;;-1.25;79.52637;95748.58;;;;
2020/01/17 00:44:50;;;;;;;25.3;15.45;;;;;;;-1.25;79.52637;95748.58;;;;
2020/01/17 00:45:50;;;;;;;25.3;15.45;;;;;;;-1.25;79.52637;95748.58;;;;
2020/01/17 00:47:08;;;;;;;25.3;15.45;;;;;;;-1.25;79.52637;95748.58;;;;
2020/01/17 00:48:09;;;;;;;25.3;15.45;;;;;;;-1.25;79.52637;95748.58;;;;
2020/01/17 00:49:09;;;;;;;25.3;15.45;;;;;;;-1.25;79.52637;95748.58;;;;
2020/01/17 00:50:10;;;;;;;25.3;15.45;;;;;;;-1.25;79.52637;95748.58;;;;
2020/01/17 00:51:11;;;;;;;25.3;15.45;;;;;;;-1.25;79.52637;95748.58;;;;
2020/01/17 00:52:11;;;;;;;25.3;15.45;;;;;;;-1.25;79.52637;95748.58;;;;
2020/01/17 00:53:12;;;;;;;25.3;15.45;;;;;;;-1.25;79.52637;95748.58;;;;
2020/01/17 00:54:12;;;;;;;25.3;15.45;;;;;;;-1.25;79.52637;95748.58;;;;
2020/01/17 00:55:13;;;;;;;25.3;15.45;;;;;;;-1.25;79.52637;95748.58;;;;
2020/01/17 00:56:14;;;;;;;25.3;15.45;;;;;;;-1.25;79.52637;95748.58;;;;
2020/01/17 00:57:14;;;;;;;25.3;15.45;;;;;;;-1.25;79.52637;95748.58;;;;
2020/01/17 00:58:15;;;;;;;25.3;15.45;;;;;;;-1.25;79.52637;95748.58;;;;
2020/01/17 00:59:15;;;;;;;25.3;15.45;;;;;;;-1.25;79.52637;95748.58;;;;
2020/01/17 01:00:18;;;;;;;25.3;15.45;;;;;;;-1.25;79.52637;95748.58;;;;
2020/01/17 01:01:56;;;;;;;25.3;15.45;;;;;;;-1.25;79.52637;95748.58;;;;
2020/01/17 01:03:03;;;;;;;22.95;14.3;;;;;;;-1.43;79.09668;95739.4;;;;
2020/01/17 01:04:07;;;;;;;22.95;14.3;;;;;;;-1.43;79.09668;95739.4;;;;
2020/01/17 01:05:12;;;;;;;22.95;14.3;;;;;;;-1.43;79.09668;95739.4;;;;
2020/01/17 01:06:18;;;;;;;22.95;14.3;;;;;;;-1.43;79.09668;95739.4;;;;
2020/01/17 01:07:22;;;;;;;22.95;14.3;;;;;;;-1.43;79.09668;95739.4;;;;
2020/01/17 01:08:41;;;;;;;22.95;14.3;;;;;;;-1.43;79.09668;95739.4;;;;
2020/01/17 01:09:44;;;;;;;22.95;14.3;;;;;;;-1.43;79.09668;95739.4;;;;
2020/01/17 01:11:16;;;;;;;22.95;14.3;;;;;;;-1.43;79.09668;95739.4;;;;
2020/01/17 01:12:17;;;;;;;22.95;14.3;;;;;;;-1.43;79.09668;95739.4;;;;
2020/01/17 01:13:21;;;;;;;22.45;13.5;;;;;;;-1.59;78.83984;95725.95;;;;
2020/01/17 01:14:24;;;;;;;22.45;13.5;;;;;;;-1.59;78.83984;95725.95;;;;
2020/01/17 01:16:00;;;;;;;22.45;13.5;;;;;;;-1.59;78.83984;95725.95;;;;
2020/01/17 01:17:07;;;;;;;22.45;13.5;;;;;;;-1.59;78.83984;95725.95;;;;
2020/01/17 01:18:08;;;;;;;22.45;13.5;;;;;;;-1.59;78.83984;95725.95;;;;
2020/01/17 01:19:12;;;;;;;22.45;13.5;;;;;;;-1.59;78.83984;95725.95;;;;
2020/01/17 01:20:13;;;;;;;22.45;13.5;;;;;;;-1.59;78.83984;95725.95;;;;
2020/01/17 01:21:59;;;;;;;22.45;13.5;;;;;;;-1.59;78.83984;95725.95;;;;
2020/01/17 01:23:00;;;;;;;22.45;13.5;;;;;;;-1.59;78.83984;95725.95;;;;
2020/01/17 01:24:35;;;;;;;19.75;12.35;;;;;;;-1.64;78.8623;95715.37;;;;
2020/01/17 01:25:35;;;;;;;19.75;12.35;;;;;;;-1.64;78.8623;95715.37;;;;
2020/01/17 01:26:36;;;;;;;19.75;12.35;;;;;;;-1.64;78.8623;95715.37;;;;
2020/01/17 01:27:39;;;;;;;19.75;12.35;;;;;;;-1.64;78.8623;95715.37;;;;
2020/01/17 01:28:39;;;;;;;19.75;12.35;;;;;;;-1.64;78.8623;95715.37;;;;
2020/01/17 01:29:40;;;;;;;19.75;12.35;;;;;;;-1.64;78.8623;95715.37;;;;
2020/01/17 01:30:43;;;;;;;19.75;12.35;;;;;;;-1.64;78.8623;95715.37;;;;
2020/01/17 01:31:50;;;;;;;19.75;12.35;;;;;;;-1.64;78.8623;95715.37;;;;
2020/01/17 01:32:54;;;;;;;19.75;12.35;;;;;;;-1.64;78.8623;95715.37;;;;
2020/01/17 01:33:54;;;;;;;19.75;12.35;;;;;;;-1.64;78.8623;95715.37;;;;
2020/01/17 01:34:57;;;;;;;20.7;12.7;;;;;;;-1.79;78.58594;95703.25;;;;
2020/01/17 01:35:58;;;;;;;20.7;12.7;;;;;;;-1.79;78.58594;95703.25;;;;
2020/01/17 01:36:58;;;;;;;20.7;12.7;;;;;;;-1.79;78.58594;95703.25;;;;
2020/01/17 01:38:23;;;;;;;20.7;12.7;;;;;;;-1.79;78.58594;95703.25;;;;
2020/01/17 01:39:25;;;;;;;20.7;12.7;;;;;;;-1.79;78.58594;95703.25;;;;
2020/01/17 01:41:22;;;;;;;20.7;12.7;;;;;;;-1.79;78.58594;95703.25;;;;
2020/01/17 01:42:24;;;;;;;20.7;12.7;;;;;;;-1.79;78.58594;95703.25;;;;
2020/01/17 01:43:24;;;;;;;20.7;12.7;;;;;;;-1.79;78.58594;95703.25;;;;
2020/01/17 01:44:25;;;;;;;20.7;12.7;;;;;;;-1.79;78.58594;95703.25;;;;
2020/01/17 01:45:25;;;;;;;21.8;13.8;;;;;;;-1.84;78.45215;95698.01;;;;
2020/01/17 01:46:26;;;;;;;21.8;13.8;;;;;;;-1.84;78.45215;95698.01;;;;
2020/01/17 01:47:27;;;;;;;21.8;13.8;;;;;;;-1.84;78.45215;95698.01;;;;
2020/01/17 01:48:27;;;;;;;21.8;13.8;;;;;;;-1.84;78.45215;95698.01;;;;
2020/01/17 01:49:28;;;;;;;21.8;13.8;;;;;;;-1.84;78.45215;95698.01;;;;
2020/01/17 01:50:29;;;;;;;21.8;13.8;;;;;;;-1.84;78.45215;95698.01;;;;
2020/01/17 01:51:49;;;;;;;21.8;13.8;;;;;;;-1.84;78.45215;95698.01;;;;
2020/01/17 01:52:50;;;;;;;21.8;13.8;;;;;;;-1.84;78.45215;95698.01;;;;
2020/01/17 01:53:51;;;;;;;21.8;13.8;;;;;;;-1.84;78.45215;95698.01;;;;
2020/01/17 01:54:54;;;;;;;21.8;13.8;;;;;;;-1.84;78.45215;95698.01;;;;
2020/01/17 01:55:54;;;;;;;20.95;12.85;;;;;;;-1.95;78.3584;95698.22;;;;
2020/01/17 01:56:56;;;;;;;20.95;12.85;;;;;;;-1.95;78.3584;95698.22;;;;
2020/01/17 01:57:56;;;;;;;20.95;12.85;;;;;;;-1.95;78.3584;95698.22;;;;
2020/01/17 01:58:57;;;;;;;20.95;12.85;;;;;;;-1.95;78.3584;95698.22;;;;
2020/01/17 01:59:58;;;;;;;20.95;12.85;;;;;;;-1.95;78.3584;95698.22;;;;
2020/01/17 02:00:58;;;;;;;20.95;12.85;;;;;;;-1.95;78.3584;95698.22;;;;
2020/01/17 02:02:26;;;;;;;20.95;12.85;;;;;;;-1.95;78.3584;95698.22;;;;
2020/01/17 02:03:41;;;;;;;20.95;12.85;;;;;;;-1.95;78.3584;95698.22;;;;
2020/01/17 02:05:35;;;;;;;20.95;12.85;;;;;;;-1.95;78.3584;95698.22;;;;
2020/01/17 02:06:51;;;;;;;21.2;12.85;;;;;;;-1.98;78.22949;95683.95;;;;
2020/01/17 02:07:52;;;;;;;21.2;12.85;;;;;;;-1.98;78.22949;95683.95;;;;
2020/01/17 02:09:05;;;;;;;21.2;12.85;;;;;;;-1.98;78.22949;95683.95;;;;
2020/01/17 02:11:11;;;;;;;21.2;12.85;;;;;;;-1.98;78.22949;95683.95;;;;
2020/01/17 02:12:34;;;;;;;21.2;12.85;;;;;;;-1.98;78.22949;95683.95;;;;
2020/01/17 02:13:36;;;;;;;21.2;12.85;;;;;;;-1.98;78.22949;95683.95;;;;
2020/01/17 02:14:39;;;;;;;21.2;12.85;;;;;;;-1.98;78.22949;95683.95;;;;
2020/01/17 02:15:43;;;;;;;21.2;12.85;;;;;;;-1.98;78.22949;95683.95;;;;
2020/01/17 02:16:43;;;;;;;21.2;12.85;;;;;;;-1.98;78.22949;95683.95;;;;
2020/01/17 02:17:45;;;;;;;20.65;12.7;;;;;;;-2.08;78.16016;95687.17;;;;
2020/01/17 02:18:45;;;;;;;20.65;12.7;;;;;;;-2.08;78.16016;95687.17;;;;
2020/01/17 02:19:50;;;;;;;20.65;12.7;;;;;;;-2.08;78.16016;95687.17;;;;
2020/01/17 02:20:51;;;;;;;20.65;12.7;;;;;;;-2.08;78.16016;95687.17;;;;
2020/01/17 02:21:51;;;;;;;20.65;12.7;;;;;;;-2.08;78.16016;95687.17;;;;
2020/01/17 02:22:53;;;;;;;20.65;12.7;;;;;;;-2.08;78.16016;95687.17;;;;
2020/01/17 02:23:55;;;;;;;20.65;12.7;;;;;;;-2.08;78.16016;95687.17;;;;
2020/01/17 02:25:00;;;;;;;20.65;12.7;;;;;;;-2.08;78.16016;95687.17;;;;
2020/01/17 02:26:00;;;;;;;20.65;12.7;;;;;;;-2.08;78.16016;95687.17;;;;
2020/01/17 02:27:00;;;;;;;20.65;12.7;;;;;;;-2.08;78.16016;95687.17;;;;
2020/01/17 02:28:01;;;;;;;23.6;13.75;;;;;;;-2.08;78.1084;95676.59;;;;
2020/01/17 02:29:05;;;;;;;23.6;13.75;;;;;;;-2.08;78.1084;95676.59;;;;
2020/01/17 02:30:15;;;;;;;23.6;13.75;;;;;;;-2.08;78.1084;95676.59;;;;
2020/01/17 02:31:18;;;;;;;23.6;13.75;;;;;;;-2.08;78.1084;95676.59;;;;
2020/01/17 02:32:38;;;;;;;23.6;13.75;;;;;;;-2.08;78.1084;95676.59;;;;
2020/01/17 02:33:44;;;;;;;23.6;13.75;;;;;;;-2.08;78.1084;95676.59;;;;
2020/01/17 02:44:58;;;;;;;25.2;14.3;;;;;;;-2.17;78.00781;95669.55;;;;
2020/01/17 02:45:58;;;;;;;25.2;14.3;;;;;;;-2.17;78.00781;95669.55;;;;
2020/01/17 02:46:59;;;;;;;25.2;14.3;;;;;;;-2.17;78.00781;95669.55;;;;
2020/01/17 02:47:59;;;;;;;25.2;14.3;;;;;;;-2.17;78.00781;95669.55;;;;
2020/01/17 02:49:00;;;;;;;21.65;12.9;;;;;;;-2.18;78.05762;95666.97;;;;
2020/01/17 02:50:00;;;;;;;21.65;12.9;;;;;;;-2.18;78.05762;95666.97;;;;
2020/01/17 02:51:01;;;;;;;21.65;12.9;;;;;;;-2.18;78.05762;95666.97;;;;
2020/01/17 02:52:03;;;;;;;21.65;12.9;;;;;;;-2.18;78.05762;95666.97;;;;
2020/01/17 02:53:03;;;;;;;21.65;12.9;;;;;;;-2.18;78.05762;95666.97;;;;
2020/01/17 02:54:05;;;;;;;21.65;12.9;;;;;;;-2.18;78.05762;95666.97;;;;
2020/01/17 02:55:06;;;;;;;21.65;12.9;;;;;;;-2.18;78.05762;95666.97;;;;
2020/01/17 02:56:06;;;;;;;21.65;12.9;;;;;;;-2.18;78.05762;95666.97;;;;
2020/01/17 02:57:07;;;;;;;21.65;12.9;;;;;;;-2.18;78.05762;95666.97;;;;
2020/01/17 02:58:07;;;;;;;21.65;12.9;;;;;;;-2.18;78.05762;95666.97;;;;
2020/01/17 02:59:08;;;;;;;21.65;12.9;;;;;;;-2.18;78.05762;95666.97;;;;
2020/01/17 03:00:08;;;;;;;19.8;12.6;;;;;;;-2.25;77.92969;95662.84;;;;
2020/01/17 03:01:09;;;;;;;19.8;12.6;;;;;;;-2.25;77.92969;95662.84;;;;
2020/01/17 03:02:10;;;;;;;19.8;12.6;;;;;;;-2.25;77.92969;95662.84;;;;
2020/01/17 03:03:10;;;;;;;19.8;12.6;;;;;;;-2.25;77.92969;95662.84;;;;
2020/01/17 03:04:11;;;;;;;19.8;12.6;;;;;;;-2.25;77.92969;95662.84;;;;
2020/01/17 03:05:11;;;;;;;19.8;12.6;;;;;;;-2.25;77.92969;95662.84;;;;
2020/01/17 03:06:12;;;;;;;19.8;12.6;;;;;;;-2.25;77.92969;95662.84;;;;
2020/01/17 03:07:12;;;;;;;19.8;12.6;;;;;;;-2.25;77.92969;95662.84;;;;
2020/01/17 03:08:12;;;;;;;19.8;12.6;;;;;;;-2.25;77.92969;95662.84;;;;
2020/01/17 03:09:13;;;;;;;19.8;12.6;;;;;;;-2.25;77.92969;95662.84;;;;
2020/01/17 03:10:13;;;;;;;19.8;12.6;;;;;;;-2.25;77.92969;95662.84;;;;
2020/01/17 03:11:14;;;;;;;19.8;12.6;;;;;;;-2.25;77.92969;95662.84;;;;
2020/01/17 03:12:15;;;;;;;19.8;12.6;;;;;;;-2.25;77.92969;95662.84;;;;
2020/01/17 03:13:15;;;;;;;19.8;12.6;;;;;;;-2.25;77.92969;95662.84;;;;
2020/01/17 03:14:15;;;;;;;19.8;12.6;;;;;;;-2.25;77.92969;95662.84;;;;
2020/01/17 03:15:16;;;;;;;19.8;12.6;;;;;;;-2.25;77.92969;95662.84;;;;
2020/01/17 03:16:17;;;;;;;19.8;12.6;;;;;;;-2.25;77.92969;95662.84;;;;
2020/01/17 03:17:17;;;;;;;19.8;12.6;;;;;;;-2.25;77.92969;95662.84;;;;
2020/01/17 03:18:18;;;;;;;19.8;12.6;;;;;;;-2.25;77.92969;95662.84;;;;
2020/01/17 03:19:18;;;;;;;19.8;12.6;;;;;;;-2.25;77.92969;95662.84;;;;
2020/01/17 03:20:19;;;;;;;19.8;12.6;;;;;;;-2.25;77.92969;95662.84;;;;
2020/01/17 03:21:19;;;;;;;22.1;12.65;;;;;;;-2.28;77.42676;95646.44;;;;
2020/01/17 03:22:20;;;;;;;22.1;12.65;;;;;;;-2.28;77.42676;95646.44;;;;
2020/01/17 03:23:20;;;;;;;22.1;12.65;;;;;;;-2.28;77.42676;95646.44;;;;
2020/01/17 03:24:21;;;;;;;22.1;12.65;;;;;;;-2.28;77.42676;95646.44;;;;
2020/01/17 03:25:21;;;;;;;22.1;12.65;;;;;;;-2.28;77.42676;95646.44;;;;
2020/01/17 03:26:22;;;;;;;22.1;12.65;;;;;;;-2.28;77.42676;95646.44;;;;
2020/01/17 03:27:22;;;;;;;22.1;12.65;;;;;;;-2.28;77.42676;95646.44;;;;
2020/01/17 03:28:22;;;;;;;22.1;12.65;;;;;;;-2.28;77.42676;95646.44;;;;
2020/01/17 03:29:23;;;;;;;22.1;12.65;;;;;;;-2.28;77.42676;95646.44;;;;
2020/01/17 03:30:23;;;;;;;22.1;12.65;;;;;;;-2.28;77.42676;95646.44;;;;
2020/01/17 03:31:24;;;;;;;21.25;12.3;;;;;;;-2.34;77.58203;95646.58;;;;
2020/01/17 03:32:24;;;;;;;21.25;12.3;;;;;;;-2.34;77.58203;95646.58;;;;
2020/01/17 03:33:25;;;;;;;21.25;12.3;;;;;;;-2.34;77.58203;95646.58;;;;
2020/01/17 03:34:25;;;;;;;21.25;12.3;;;;;;;-2.34;77.58203;95646.58;;;;
2020/01/17 03:35:26;;;;;;;21.25;12.3;;;;;;;-2.34;77.58203;95646.58;;;;
2020/01/17 03:36:26;;;;;;;21.25;12.3;;;;;;;-2.34;77.58203;95646.58;;;;
2020/01/17 03:37:27;;;;;;;21.25;12.3;;;;;;;-2.34;77.58203;95646.58;;;;
2020/01/17 03:38:27;;;;;;;21.25;12.3;;;;;;;-2.34;77.58203;95646.58;;;;
2020/01/17 03:39:27;;;;;;;21.25;12.3;;;;;;;-2.34;77.58203;95646.58;;;;
2020/01/17 03:40:28;;;;;;;21.25;12.3;;;;;;;-2.34;77.58203;95646.58;;;;
2020/01/17 03:41:28;;;;;;;21.25;12.3;;;;;;;-2.34;77.58203;95646.58;;;;
2020/01/17 03:42:29;;;;;;;18.95;11.65;;;;;;;-2.43;77.55273;95640.01;;;;
2020/01/17 03:43:30;;;;;;;18.95;11.65;;;;;;;-2.43;77.55273;95640.01;;;;
2020/01/17 03:44:31;;;;;;;18.95;11.65;;;;;;;-2.43;77.55273;95640.01;;;;
2020/01/17 03:45:33;;;;;;;18.95;11.65;;;;;;;-2.43;77.55273;95640.01;;;;
2020/01/17 03:46:39;;;;;;;18.95;11.65;;;;;;;-2.43;77.55273;95640.01;;;;
2020/01/17 03:47:47;;;;;;;18.95;11.65;;;;;;;-2.43;77.55273;95640.01;;;;
2020/01/17 03:48:57;;;;;;;18.95;11.65;;;;;;;-2.43;77.55273;95640.01;;;;
2020/01/17 03:50:05;;;;;;;18.95;11.65;;;;;;;-2.43;77.55273;95640.01;;;;
2020/01/17 03:51:06;;;;;;;18.95;11.65;;;;;;;-2.43;77.55273;95640.01;;;;
2020/01/17 03:52:07;;;;;;;18.95;11.65;;;;;;;-2.43;77.55273;95640.01;;;;
2020/01/17 03:53:08;;;;;;;22.4;12.95;;;;;;;-2.43;77.49121;95622.83;;;;
2020/01/17 03:54:08;;;;;;;22.4;12.95;;;;;;;-2.43;77.49121;95622.83;;;;
2020/01/17 03:55:09;;;;;;;22.4;12.95;;;;;;;-2.43;77.49121;95622.83;;;;
2020/01/17 03:56:09;;;;;;;22.4;12.95;;;;;;;-2.43;77.49121;95622.83;;;;
2020/01/17 03:57:10;;;;;;;22.4;12.95;;;;;;;-2.43;77.49121;95622.83;;;;
2020/01/17 03:58:10;;;;;;;22.4;12.95;;;;;;;-2.43;77.49121;95622.83;;;;
2020/01/17 03:59:15;;;;;;;22.4;12.95;;;;;;;-2.43;77.49121;95622.83;;;;
2020/01/17 04:00:18;;;;;;;22.4;12.95;;;;;;;-2.43;77.49121;95622.83;;;;
2020/01/17 04:01:19;;;;;;;22.4;12.95;;;;;;;-2.43;77.49121;95622.83;;;;
2020/01/17 04:02:20;;;;;;;22.4;12.95;;;;;;;-2.43;77.49121;95622.83;;;;
2020/01/17 04:03:21;;;;;;;21.35;12;;;;;;;-2.48;77.53418;95625.09;;;;
2020/01/17 04:04:22;;;;;;;21.35;12;;;;;;;-2.48;77.53418;95625.09;;;;
2020/01/17 04:05:23;;;;;;;21.35;12;;;;;;;-2.48;77.53418;95625.09;;;;
2020/01/17 04:06:25;;;;;;;21.35;12;;;;;;;-2.48;77.53418;95625.09;;;;
2020/01/17 04:07:25;;;;;;;21.35;12;;;;;;;-2.48;77.53418;95625.09;;;;
2020/01/17 04:08:26;;;;;;;21.35;12;;;;;;;-2.48;77.53418;95625.09;;;;
2020/01/17 04:09:26;;;;;;;21.35;12;;;;;;;-2.48;77.53418;95625.09;;;;
2020/01/17 04:10:27;;;;;;;21.35;12;;;;;;;-2.48;77.53418;95625.09;;;;
2020/01/17 04:11:28;;;;;;;21.35;12;;;;;;;-2.48;77.53418;95625.09;;;;
2020/01/17 04:12:28;;;;;;;21.35;12;;;;;;;-2.48;77.53418;95625.09;;;;
2020/01/17 04:13:29;;;;;;;21.35;12;;;;;;;-2.48;77.53418;95625.09;;;;
2020/01/17 04:14:29;;;;;;;19.7;12.05;;;;;;;-2.47;77.49609;95616.6;;;;
2020/01/17 04:15:30;;;;;;;19.7;12.05;;;;;;;-2.47;77.49609;95616.6;;;;
2020/01/17 04:16:30;;;;;;;19.7;12.05;;;;;;;-2.47;77.49609;95616.6;;;;
2020/01/17 04:17:34;;;;;;;19.7;12.05;;;;;;;-2.47;77.49609;95616.6;;;;
2020/01/17 04:18:35;;;;;;;19.7;12.05;;;;;;;-2.47;77.49609;95616.6;;;;
2020/01/17 04:19:36;;;;;;;19.7;12.05;;;;;;;-2.47;77.49609;95616.6;;;;
2020/01/17 04:20:36;;;;;;;19.7;12.05;;;;;;;-2.47;77.49609;95616.6;;;;
2020/01/17 04:21:37;;;;;;;19.7;12.05;;;;;;;-2.47;77.49609;95616.6;;;;
2020/01/17 04:22:37;;;;;;;19.7;12.05;;;;;;;-2.47;77.49609;95616.6;;;;
2020/01/17 04:23:38;;;;;;;19.7;12.05;;;;;;;-2.47;77.49609;95616.6;;;;
2020/01/17 04:24:38;;;;;;;20.35;12.35;;;;;;;-2.52;77.41504;95632.87;;;;
2020/01/17 04:25:39;;;;;;;20.35;12.35;;;;;;;-2.52;77.41504;95632.87;;;;
2020/01/17 04:26:39;;;;;;;20.35;12.35;;;;;;;-2.52;77.41504;95632.87;;;;
2020/01/17 04:27:40;;;;;;;20.35;12.35;;;;;;;-2.52;77.41504;95632.87;;;;
2020/01/17 04:28:40;;;;;;;20.35;12.35;;;;;;;-2.52;77.41504;95632.87;;;;
2020/01/17 04:29:42;;;;;;;20.35;12.35;;;;;;;-2.52;77.41504;95632.87;;;;
2020/01/17 04:30:42;;;;;;;20.35;12.35;;;;;;;-2.52;77.41504;95632.87;;;;
2020/01/17 04:31:43;;;;;;;20.35;12.35;;;;;;;-2.52;77.41504;95632.87;;;;
2020/01/17 04:32:43;;;;;;;20.35;12.35;;;;;;;-2.52;77.41504;95632.87;;;;
2020/01/17 04:33:44;;;;;;;20.35;12.35;;;;;;;-2.52;77.41504;95632.87;;;;
2020/01/17 04:34:44;;;;;;;20.35;12.35;;;;;;;-2.52;77.41504;95632.87;;;;
2020/01/17 04:35:45;;;;;;;22.3;13.4;;;;;;;-2.45;77.34375;95628.27;;;;
2020/01/17 04:36:46;;;;;;;22.3;13.4;;;;;;;-2.45;77.34375;95628.27;;;;
2020/01/17 04:37:46;;;;;;;22.3;13.4;;;;;;;-2.45;77.34375;95628.27;;;;
2020/01/17 04:38:47;;;;;;;22.3;13.4;;;;;;;-2.45;77.34375;95628.27;;;;
2020/01/17 04:40:11;;;;;;;22.3;13.4;;;;;;;-2.45;77.34375;95628.27;;;;
2020/01/17 04:41:51;;;;;;;22.3;13.4;;;;;;;-2.45;77.34375;95628.27;;;;
2020/01/17 04:42:56;;;;;;;22.3;13.4;;;;;;;-2.45;77.34375;95628.27;;;;
2020/01/17 04:43:58;;;;;;;22.3;13.4;;;;;;;-2.45;77.34375;95628.27;;;;
2020/01/17 04:44:59;;;;;;;22.3;13.4;;;;;;;-2.45;77.34375;95628.27;;;;
2020/01/17 04:45:59;;;;;;;24.35;14.85;;;;;;;-2.45;77.20703;95627.44;;;;
2020/01/17 04:47:00;;;;;;;24.35;14.85;;;;;;;-2.45;77.20703;95627.44;;;;
2020/01/17 04:48:00;;;;;;;24.35;14.85;;;;;;;-2.45;77.20703;95627.44;;;;
2020/01/17 04:49:01;;;;;;;24.35;14.85;;;;;;;-2.45;77.20703;95627.44;;;;
2020/01/17 04:50:01;;;;;;;24.35;14.85;;;;;;;-2.45;77.20703;95627.44;;;;
2020/01/17 04:51:02;;;;;;;24.35;14.85;;;;;;;-2.45;77.20703;95627.44;;;;
2020/01/17 04:52:02;;;;;;;24.35;14.85;;;;;;;-2.45;77.20703;95627.44;;;;
2020/01/17 04:53:03;;;;;;;24.35;14.85;;;;;;;-2.45;77.20703;95627.44;;;;
2020/01/17 04:54:03;;;;;;;24.35;14.85;;;;;;;-2.45;77.20703;95627.44;;;;
2020/01/17 04:55:04;;;;;;;24.35;14.85;;;;;;;-2.45;77.20703;95627.44;;;;
2020/01/17 04:56:05;;;;;;;24.35;14.85;;;;;;;-2.45;77.20703;95627.44;;;;
2020/01/17 04:57:05;;;;;;;24.3;15.45;;;;;;;-2.39;77.29199;95631.2;;;;
2020/01/17 04:58:06;;;;;;;24.3;15.45;;;;;;;-2.39;77.29199;95631.2;;;;
2020/01/17 04:59:06;;;;;;;24.3;15.45;;;;;;;-2.39;77.29199;95631.2;;;;
2020/01/17 05:00:06;;;;;;;24.3;15.45;;;;;;;-2.39;77.29199;95631.2;;;;
2020/01/17 05:01:07;;;;;;;24.3;15.45;;;;;;;-2.39;77.29199;95631.2;;;;
2020/01/17 05:02:08;;;;;;;24.3;15.45;;;;;;;-2.39;77.29199;95631.2;;;;
2020/01/17 05:03:08;;;;;;;24.3;15.45;;;;;;;-2.39;77.29199;95631.2;;;;
2020/01/17 05:04:09;;;;;;;24.3;15.45;;;;;;;-2.39;77.29199;95631.2;;;;
2020/01/17 05:05:09;;;;;;;24.3;15.45;;;;;;;-2.39;77.29199;95631.2;;;;
2020/01/17 05:06:10;;;;;;;24.3;15.45;;;;;;;-2.39;77.29199;95631.2;;;;
2020/01/17 05:07:10;;;;;;;28.85;17.4;;;;;;;-2.38;77.3457;95636.43;;;;
2020/01/17 05:08:11;;;;;;;28.85;17.4;;;;;;;-2.38;77.3457;95636.43;;;;
2020/01/17 05:09:12;;;;;;;28.85;17.4;;;;;;;-2.38;77.3457;95636.43;;;;
2020/01/17 05:10:17;;;;;;;28.85;17.4;;;;;;;-2.38;77.3457;95636.43;;;;
2020/01/17 05:11:18;;;;;;;28.85;17.4;;;;;;;-2.38;77.3457;95636.43;;;;
2020/01/17 05:12:19;;;;;;;28.85;17.4;;;;;;;-2.38;77.3457;95636.43;;;;
2020/01/17 05:13:19;;;;;;;28.85;17.4;;;;;;;-2.38;77.3457;95636.43;;;;
2020/01/17 05:14:20;;;;;;;28.85;17.4;;;;;;;-2.38;77.3457;95636.43;;;;
2020/01/17 05:15:21;;;;;;;28.85;17.4;;;;;;;-2.38;77.3457;95636.43;;;;
2020/01/17 05:16:22;;;;;;;28.85;17.4;;;;;;;-2.38;77.3457;95636.43;;;;
2020/01/17 05:17:31;;;;;;;28.85;17.4;;;;;;;-2.38;77.3457;95636.43;;;;
2020/01/17 05:18:40;;;;;;;30.45;18.05;;;;;;;-2.27;77.41992;95633.48;;;;
2020/01/17 05:19:47;;;;;;;30.45;18.05;;;;;;;-2.27;77.41992;95633.48;;;;
2020/01/17 05:20:47;;;;;;;30.45;18.05;;;;;;;-2.27;77.41992;95633.48;;;;
2020/01/17 05:21:48;;;;;;;30.45;18.05;;;;;;;-2.27;77.41992;95633.48;;;;
2020/01/17 05:22:48;;;;;;;30.45;18.05;;;;;;;-2.27;77.41992;95633.48;;;;
2020/01/17 05:23:49;;;;;;;30.45;18.05;;;;;;;-2.27;77.41992;95633.48;;;;
2020/01/17 05:24:49;;;;;;;30.45;18.05;;;;;;;-2.27;77.41992;95633.48;;;;
2020/01/17 05:25:50;;;;;;;30.45;18.05;;;;;;;-2.27;77.41992;95633.48;;;;
2020/01/17 05:26:50;;;;;;;30.45;18.05;;;;;;;-2.27;77.41992;95633.48;;;;
2020/01/17 05:27:52;;;;;;;30.45;18.05;;;;;;;-2.27;77.41992;95633.48;;;;
2020/01/17 05:28:52;;;;;;;30.6;18.7;;;;;;;-2.18;77.64063;95613.26;;;;
2020/01/17 05:29:53;;;;;;;30.6;18.7;;;;;;;-2.18;77.64063;95613.26;;;;
2020/01/17 05:30:53;;;;;;;30.6;18.7;;;;;;;-2.18;77.64063;95613.26;;;;
2020/01/17 05:31:54;;;;;;;30.6;18.7;;;;;;;-2.18;77.64063;95613.26;;;;
2020/01/17 05:32:54;;;;;;;30.6;18.7;;;;;;;-2.18;77.64063;95613.26;;;;
2020/01/17 05:33:54;;;;;;;30.6;18.7;;;;;;;-2.18;77.64063;95613.26;;;;
2020/01/17 05:34:55;;;;;;;30.6;18.7;;;;;;;-2.18;77.64063;95613.26;;;;
2020/01/17 05:35:56;;;;;;;30.6;18.7;;;;;;;-2.18;77.64063;95613.26;;;;
2020/01/17 05:36:56;;;;;;;30.6;18.7;;;;;;;-2.18;77.64063;95613.26;;;;
2020/01/17 05:37:57;;;;;;;30.6;18.7;;;;;;;-2.18;77.64063;95613.26;;;;
2020/01/17 05:38:59;;;;;;;24;14.8;;;;;;;-2.01;77.79688;95623.49;;;;
2020/01/17 05:40:00;;;;;;;24;14.8;;;;;;;-2.01;77.79688;95623.49;;;;
2020/01/17 05:41:00;;;;;;;24;14.8;;;;;;;-2.01;77.79688;95623.49;;;;
2020/01/17 05:42:00;;;;;;;24;14.8;;;;;;;-2.01;77.79688;95623.49;;;;
2020/01/17 05:43:01;;;;;;;24;14.8;;;;;;;-2.01;77.79688;95623.49;;;;
2020/01/17 05:44:01;;;;;;;24;14.8;;;;;;;-2.01;77.79688;95623.49;;;;
2020/01/17 05:45:02;;;;;;;24;14.8;;;;;;;-2.01;77.79688;95623.49;;;;
2020/01/17 05:46:02;;;;;;;24;14.8;;;;;;;-2.01;77.79688;95623.49;;;;
2020/01/17 05:47:03;;;;;;;24;14.8;;;;;;;-2.01;77.79688;95623.49;;;;
2020/01/17 05:48:03;;;;;;;24;14.8;;;;;;;-2.01;77.79688;95623.49;;;;
2020/01/17 05:49:04;;;;;;;24;14.8;;;;;;;-2.01;77.79688;95623.49;;;;
2020/01/17 05:50:04;;;;;;;20.5;12.45;;;;;;;-1.86;77.9502;95632.08;;;;
2020/01/17 05:51:05;;;;;;;20.5;12.45;;;;;;;-1.86;77.9502;95632.08;;;;
2020/01/17 05:52:05;;;;;;;20.5;12.45;;;;;;;-1.86;77.9502;95632.08;;;;
2020/01/17 05:53:05;;;;;;;20.5;12.45;;;;;;;-1.86;77.9502;95632.08;;;;
2020/01/17 05:54:06;;;;;;;20.5;12.45;;;;;;;-1.86;77.9502;95632.08;;;;
2020/01/17 05:55:06;;;;;;;20.5;12.45;;;;;;;-1.86;77.9502;95632.08;;;;
2020/01/17 05:56:07;;;;;;;20.5;12.45;;;;;;;-1.86;77.9502;95632.08;;;;
2020/01/17 05:57:07;;;;;;;20.5;12.45;;;;;;;-1.86;77.9502;95632.08;;;;
2020/01/17 05:58:08;;;;;;;20.5;12.45;;;;;;;-1.86;77.9502;95632.08;;;;
2020/01/17 05:59:08;;;;;;;20.5;12.45;;;;;;;-1.86;77.9502;95632.08;;;;
2020/01/17 06:00:09;;;;;;;16.5;10.65;;;;;;;-1.69;78.10645;95629.89;;;;
2020/01/17 06:01:10;;;;;;;16.5;10.65;;;;;;;-1.69;78.10645;95629.89;;;;
2020/01/17 06:02:10;;;;;;;16.5;10.65;;;;;;;-1.69;78.10645;95629.89;;;;
2020/01/17 06:03:10;;;;;;;16.5;10.65;;;;;;;-1.69;78.10645;95629.89;;;;
2020/01/17 06:04:11;;;;;;;16.5;10.65;;;;;;;-1.69;78.10645;95629.89;;;;
2020/01/17 06:05:11;;;;;;;16.5;10.65;;;;;;;-1.69;78.10645;95629.89;;;;
2020/01/17 06:06:12;;;;;;;16.5;10.65;;;;;;;-1.69;78.10645;95629.89;;;;
2020/01/17 06:07:12;;;;;;;16.5;10.65;;;;;;;-1.69;78.10645;95629.89;;;;
2020/01/17 06:08:13;;;;;;;16.5;10.65;;;;;;;-1.69;78.10645;95629.89;;;;
2020/01/17 06:09:13;;;;;;;16.5;10.65;;;;;;;-1.69;78.10645;95629.89;;;;
2020/01/17 06:10:15;;;;;;;16.5;10.65;;;;;;;-1.69;78.10645;95629.89;;;;
2020/01/17 06:11:15;;;;;;;13.55;9.75;;;;;;;-1.63;77.96094;95627.12;;;;
2020/01/17 06:12:16;;;;;;;13.55;9.75;;;;;;;-1.63;77.96094;95627.12;;;;
2020/01/17 06:13:16;;;;;;;13.55;9.75;;;;;;;-1.63;77.96094;95627.12;;;;
2020/01/17 06:14:17;;;;;;;13.55;9.75;;;;;;;-1.63;77.96094;95627.12;;;;